Station Historical Data
Daily Summary for January 10, 2018 Units:  Both    English   Metric
« Previous Day
Next Day »
Daily Weekly Monthly Yearly Custom
  High: Low: Average:
Temperature: TemperatureF °F /  -17.8 °C 17.2 °F /  -8.2 °C 40.4 °F /  4.7 °C
Dew Point: DewpointF °F /  -17.8 °C 12.6 °F /  -10.8 °C 31.9 °F /  -0.1 °C
Humidity: Humidity% 43% 72%
Wind Speed: WindSpeedMPHmph /  0km/h - 3.6mph /  5.8km/h
Wind Gust: WindSpeedGustMPHmph /  0km/h - -
Wind- - South
Pressure: PressureIn in /  0 hPa 30.06 in /  1017.8 hPa -
Precipitation: 0.00 in /  0 mm    
Historical Graphs
 
 
Tabular Data for January 10, 2018
Time Temperature Dew Point Pressure Wind Wind Speed Wind Gust Humidity Rainfall Rate (Hourly)
TemperatureF °F /  -17.8 °C DewpointF °F /  -17.8 °C PressureInin /  0hPa Calm     Humidity% HourlyPrecipInin /  0mm
00:00 21.5 °F /  -5.8 °C 15.7 °F /  -9.1 °C 30.40in /  1029.3hPa Calm     78% 0.00in /  0mm
00:25 20.3 °F /  -6.5 °C 14.5 °F /  -9.7 °C 30.41in /  1029.7hPa Calm     78% 0.00in /  0mm
00:45 19.5 °F /  -6.9 °C 14.0 °F /  -10 °C 30.41in /  1029.7hPa Calm     79% 0.00in /  0mm
01:05 18.8 °F /  -7.3 °C 13.4 °F /  -10.3 °C 30.40in /  1029.3hPa Calm     79% 0.00in /  0mm
02:20 17.5 °F /  -8.1 °C 12.9 °F /  -10.6 °C 30.41in /  1029.7hPa Calm     82% 0.00in /  0mm
02:29 17.4 °F /  -8.1 °C 12.8 °F /  -10.7 °C 30.41in /  1029.7hPa Calm     82% 0.00in /  0mm
02:40 17.2 °F /  -8.2 °C 12.6 °F /  -10.8 °C 30.41in /  1029.7hPa Calm     82% 0.00in /  0mm
05:45 17.2 °F /  -8.2 °C 13.5 °F /  -10.3 °C 30.35in /  1027.7hPa Calm     85% 0.00in /  0mm
06:50 17.5 °F /  -8.1 °C 14.0 °F /  -10 °C 30.33in /  1027hPa ESE 1.0mph /  1.6km/h 4.0mph /  6.4km/h 86% 0.00in /  0mm
07:05 17.7 °F /  -7.9 °C 14.2 °F /  -9.9 °C 30.32in /  1026.6hPa Calm   3.0mph /  4.8km/h 86% 0.00in /  0mm
07:20 18.0 °F /  -7.8 °C 14.5 °F /  -9.7 °C 30.31in /  1026.3hPa SE 1.0mph /  1.6km/h 3.0mph /  4.8km/h 86% 0.00in /  0mm
08:59 22.7 °F /  -5.2 °C 18.9 °F /  -7.3 °C 30.29in /  1025.6hPa SE 1.0mph /  1.6km/h 4.0mph /  6.4km/h 85% 0.00in /  0mm
09:24 25.6 °F /  -3.6 °C 19.7 °F /  -6.8 °C 30.28in /  1025.3hPa SE 2.0mph /  3.2km/h 7.0mph /  11.3km/h 78% 0.00in /  0mm
09:29 26.2 °F /  -3.2 °C 20.0 °F /  -6.7 °C 30.28in /  1025.3hPa SE 2.0mph /  3.2km/h 7.0mph /  11.3km/h 77% 0.00in /  0mm
09:34 26.7 °F /  -2.9 °C 20.1 °F /  -6.6 °C 30.28in /  1025.3hPa SE 2.0mph /  3.2km/h 5.0mph /  8km/h 76% 0.00in /  0mm
09:39 27.4 °F /  -2.6 °C 20.5 °F /  -6.4 °C 30.28in /  1025.3hPa ESE 2.0mph /  3.2km/h 5.0mph /  8km/h 75% 0.00in /  0mm
09:44 28.0 °F /  -2.2 °C 20.8 °F /  -6.2 °C 30.28in /  1025.3hPa Calm   2.0mph /  3.2km/h 74% 0.00in /  0mm
09:49 28.3 °F /  -2.1 °C 20.7 °F /  -6.3 °C 30.28in /  1025.3hPa SE 2.0mph /  3.2km/h 4.0mph /  6.4km/h 73% 0.00in /  0mm
09:54 28.7 °F /  -1.8 °C 20.8 °F /  -6.2 °C 30.28in /  1025.3hPa SE 1.0mph /  1.6km/h 4.0mph /  6.4km/h 72% 0.00in /  0mm
09:59 29.3 °F /  -1.5 °C 21.1 °F /  -6.1 °C 30.28in /  1025.3hPa SE 2.0mph /  3.2km/h 3.0mph /  4.8km/h 71% 0.00in /  0mm
10:04 29.5 °F /  -1.4 °C 20.9 °F /  -6.2 °C 30.29in /  1025.6hPa SE 3.0mph /  4.8km/h 5.0mph /  8km/h 70% 0.00in /  0mm
10:09 29.7 °F /  -1.3 °C 21.1 °F /  -6.1 °C 30.29in /  1025.6hPa SE 2.0mph /  3.2km/h 4.0mph /  6.4km/h 70% 0.00in /  0mm
10:14 30.2 °F /  -1 °C 21.2 °F /  -6 °C 30.29in /  1025.6hPa SE 1.0mph /  1.6km/h 4.0mph /  6.4km/h 69% 0.00in /  0mm
10:19 30.6 °F /  -0.8 °C 21.3 °F /  -5.9 °C 30.28in /  1025.3hPa SE 2.0mph /  3.2km/h 5.0mph /  8km/h 68% 0.00in /  0mm
10:29 31.4 °F /  -0.3 °C 21.7 °F /  -5.7 °C 30.28in /  1025.3hPa SE 2.0mph /  3.2km/h 4.0mph /  6.4km/h 67% 0.00in /  0mm
10:34 32.0 °F /  0 °C 21.9 °F /  -5.6 °C 30.28in /  1025.3hPa SE 1.0mph /  1.6km/h 4.0mph /  6.4km/h 66% 0.00in /  0mm
10:39 32.4 °F /  0.2 °C 22.3 °F /  -5.4 °C 30.28in /  1025.3hPa Calm   2.0mph /  3.2km/h 66% 0.00in /  0mm
10:44 33.0 °F /  0.6 °C 22.5 °F /  -5.3 °C 30.27in /  1024.9hPa SE 1.0mph /  1.6km/h 2.0mph /  3.2km/h 65% 0.00in /  0mm
10:49 32.8 °F /  0.4 °C 22.3 °F /  -5.4 °C 30.27in /  1024.9hPa SE 1.0mph /  1.6km/h 2.0mph /  3.2km/h 65% 0.00in /  0mm
10:54 33.3 °F /  0.7 °C 22.4 °F /  -5.3 °C 30.27in /  1024.9hPa SE 2.0mph /  3.2km/h 3.0mph /  4.8km/h 64% 0.00in /  0mm
10:59 33.5 °F /  0.8 °C 22.2 °F /  -5.4 °C 30.27in /  1024.9hPa SE 1.0mph /  1.6km/h 3.0mph /  4.8km/h 63% 0.00in /  0mm
11:04 34.3 °F /  1.3 °C 22.6 °F /  -5.2 °C 30.27in /  1024.9hPa Calm   2.0mph /  3.2km/h 62% 0.00in /  0mm
11:09 34.2 °F /  1.2 °C 22.5 °F /  -5.3 °C 30.26in /  1024.6hPa Calm   2.0mph /  3.2km/h 62% 0.00in /  0mm
11:14 34.3 °F /  1.3 °C 22.6 °F /  -5.2 °C 30.26in /  1024.6hPa Calm   1.0mph /  1.6km/h 62% 0.00in /  0mm
11:19 34.8 °F /  1.6 °C 23.1 °F /  -4.9 °C 30.26in /  1024.6hPa Calm     62% 0.00in /  0mm
11:24 36.2 °F /  2.3 °C 23.2 °F /  -4.9 °C 30.26in /  1024.6hPa Calm   2.0mph /  3.2km/h 59% 0.00in /  0mm
11:29 36.7 °F /  2.6 °C 23.3 °F /  -4.8 °C 30.25in /  1024.3hPa SE 1.0mph /  1.6km/h 4.0mph /  6.4km/h 58% 0.00in /  0mm
11:34 36.7 °F /  2.6 °C 23.3 °F /  -4.8 °C 30.25in /  1024.3hPa SE 1.0mph /  1.6km/h 4.0mph /  6.4km/h 58% 0.00in /  0mm
11:39 36.8 °F /  2.7 °C 23.0 °F /  -5 °C 30.24in /  1023.9hPa SE 1.0mph /  1.6km/h 3.0mph /  4.8km/h 57% 0.00in /  0mm
11:44 37.3 °F /  2.9 °C 24.3 °F /  -4.3 °C 30.24in /  1023.9hPa East 2.0mph /  3.2km/h 5.0mph /  8km/h 59% 0.00in /  0mm
11:49 37.3 °F /  2.9 °C 23.9 °F /  -4.5 °C 30.22in /  1023.2hPa East 2.0mph /  3.2km/h 5.0mph /  8km/h 58% 0.00in /  0mm
11:54 38.4 °F /  3.6 °C 24.9 °F /  -3.9 °C 30.21in /  1022.9hPa East 2.0mph /  3.2km/h 5.0mph /  8km/h 58% 0.01in /  0.25mm
11:59 38.9 °F /  3.8 °C 24.1 °F /  -4.4 °C 30.20in /  1022.6hPa ESE 2.0mph /  3.2km/h 5.0mph /  8km/h 55% 0.01in /  0.25mm
12:04 39.0 °F /  3.9 °C 24.6 °F /  -4.1 °C 30.20in /  1022.6hPa East 2.0mph /  3.2km/h 5.0mph /  8km/h 56% 0.01in /  0.25mm
12:10 39.1 °F /  3.9 °C 25.6 °F /  -3.6 °C 30.19in /  1022.2hPa East 2.0mph /  3.2km/h 5.0mph /  8km/h 58% 0.01in /  0.25mm
12:19 40.6 °F /  4.8 °C 25.2 °F /  -3.8 °C 30.18in /  1021.9hPa East 1.0mph /  1.6km/h 5.0mph /  8km/h 54% 0.01in /  0.25mm
12:24 40.9 °F /  4.9 °C 26.0 °F /  -3.3 °C 30.18in /  1021.9hPa East 1.0mph /  1.6km/h 2.0mph /  3.2km/h 55% 0.03in /  0.76mm
12:29 41.6 °F /  5.3 °C 25.7 °F /  -3.5 °C 30.18in /  1021.9hPa East 1.0mph /  1.6km/h 2.0mph /  3.2km/h 53% 0.03in /  0.76mm
12:34 42.5 °F /  5.8 °C 26.1 °F /  -3.3 °C 30.18in /  1021.9hPa Calm   5.0mph /  8km/h 52% 0.04in /  1.02mm
12:39 43.0 °F /  6.1 °C 26.1 °F /  -3.3 °C 30.18in /  1021.9hPa East 1.0mph /  1.6km/h 5.0mph /  8km/h 51% 0.04in /  1.02mm
12:44 43.4 °F /  6.3 °C 26.0 °F /  -3.3 °C 30.18in /  1021.9hPa Calm   2.0mph /  3.2km/h 50% 0.05in /  1.27mm
12:49 43.9 °F /  6.6 °C 26.0 °F /  -3.3 °C 30.18in /  1021.9hPa ESE 1.0mph /  1.6km/h 5.0mph /  8km/h 49% 0.06in /  1.52mm
12:54 44.6 °F /  7 °C 26.1 °F /  -3.3 °C 30.17in /  1021.6hPa ESE 1.0mph /  1.6km/h 5.0mph /  8km/h 48% 0.05in /  1.27mm
12:59 45.1 °F /  7.3 °C 26.1 °F /  -3.3 °C 30.17in /  1021.6hPa SSE 2.0mph /  3.2km/h 6.0mph /  9.7km/h 47% 0.06in /  1.52mm
13:04 45.6 °F /  7.6 °C 26.0 °F /  -3.3 °C 30.17in /  1021.6hPa South 2.0mph /  3.2km/h 4.0mph /  6.4km/h 46% 0.07in /  1.78mm
13:14 46.5 °F /  8.1 °C 26.3 °F /  -3.2 °C 30.16in /  1021.2hPa South 2.0mph /  3.2km/h 5.0mph /  8km/h 45% 0.09in /  2.29mm
13:19 46.9 °F /  8.3 °C 25.5 °F /  -3.6 °C 30.16in /  1021.2hPa South 5.0mph /  8km/h 9.0mph /  14.5km/h 43% 0.09in /  2.29mm
13:24 46.4 °F /  8 °C 25.6 °F /  -3.6 °C 30.15in /  1020.9hPa South 3.0mph /  4.8km/h 7.0mph /  11.3km/h 44% 0.08in /  2.03mm
13:29 45.9 °F /  7.7 °C 26.3 °F /  -3.2 °C 30.14in /  1020.5hPa South 5.0mph /  8km/h 6.0mph /  9.7km/h 46% 0.09in /  2.29mm
13:34 45.7 °F /  7.6 °C 26.6 °F /  -3 °C 30.14in /  1020.5hPa SSW 3.0mph /  4.8km/h 7.0mph /  11.3km/h 47% 0.08in /  2.03mm
13:39 45.6 °F /  7.6 °C 27.0 °F /  -2.8 °C 30.14in /  1020.5hPa SSW 2.0mph /  3.2km/h 6.0mph /  9.7km/h 48% 0.09in /  2.29mm
13:44 45.6 °F /  7.6 °C 27.5 °F /  -2.5 °C 30.14in /  1020.5hPa SSW 2.0mph /  3.2km/h 7.0mph /  11.3km/h 49% 0.08in /  2.03mm
13:49 45.6 °F /  7.6 °C 28.0 °F /  -2.2 °C 30.13in /  1020.2hPa SSW 2.0mph /  3.2km/h 7.0mph /  11.3km/h 50% 0.07in /  1.78mm
13:54 45.8 °F /  7.7 °C 28.2 °F /  -2.1 °C 30.13in /  1020.2hPa South 2.0mph /  3.2km/h 5.0mph /  8km/h 50% 0.08in /  2.03mm
14:04 45.7 °F /  7.6 °C 29.1 °F /  -1.6 °C 30.12in /  1019.9hPa SSW 2.0mph /  3.2km/h 6.0mph /  9.7km/h 52% 0.07in /  1.78mm
14:09 45.7 °F /  7.6 °C 29.5 °F /  -1.4 °C 30.12in /  1019.9hPa South 2.0mph /  3.2km/h 6.0mph /  9.7km/h 53% 0.06in /  1.52mm
14:14 45.8 °F /  7.7 °C 30.5 °F /  -0.8 °C 30.12in /  1019.9hPa SSW 3.0mph /  4.8km/h 8.0mph /  12.9km/h 55% 0.06in /  1.52mm
14:19 45.6 °F /  7.6 °C 30.3 °F /  -0.9 °C 30.12in /  1019.9hPa SSW 3.0mph /  4.8km/h 8.0mph /  12.9km/h 55% 0.06in /  1.52mm
14:24 45.3 °F /  7.4 °C 30.5 °F /  -0.8 °C 30.12in /  1019.9hPa SSW 2.0mph /  3.2km/h 3.0mph /  4.8km/h 56% 0.05in /  1.27mm
14:29 45.2 °F /  7.3 °C 30.9 °F /  -0.6 °C 30.12in /  1019.9hPa South 2.0mph /  3.2km/h 5.0mph /  8km/h 57% 0.05in /  1.27mm
14:34 45.3 °F /  7.4 °C 31.4 °F /  -0.3 °C 30.12in /  1019.9hPa South 3.0mph /  4.8km/h 4.0mph /  6.4km/h 58% 0.05in /  1.27mm
14:39 45.1 °F /  7.3 °C 31.6 °F /  -0.2 °C 30.11in /  1019.5hPa Calm   5.0mph /  8km/h 59% 0.04in /  1.02mm
14:44 45.1 °F /  7.3 °C 32.0 °F /  0 °C 30.11in /  1019.5hPa South 2.0mph /  3.2km/h 5.0mph /  8km/h 60% 0.05in /  1.27mm
14:49 45.1 °F /  7.3 °C 32.8 °F /  0.4 °C 30.11in /  1019.5hPa South 3.0mph /  4.8km/h 4.0mph /  6.4km/h 62% 0.05in /  1.27mm
14:59 45.5 °F /  7.5 °C 34.8 °F /  1.6 °C 30.11in /  1019.5hPa South 3.0mph /  4.8km/h 10.0mph /  16.1km/h 66% 0.04in /  1.02mm
15:04 45.6 °F /  7.6 °C 35.3 °F /  1.8 °C 30.11in /  1019.5hPa South 4.0mph /  6.4km/h 7.0mph /  11.3km/h 67% 0.04in /  1.02mm
15:14 45.6 °F /  7.6 °C 36.7 °F /  2.6 °C 30.11in /  1019.5hPa South 4.0mph /  6.4km/h 11.0mph /  17.7km/h 71% 0.03in /  0.76mm
15:19 45.5 °F /  7.5 °C 36.6 °F /  2.6 °C 30.11in /  1019.5hPa South 4.0mph /  6.4km/h 11.0mph /  17.7km/h 71% 0.04in /  1.02mm
15:24 45.4 °F /  7.4 °C 37.2 °F /  2.9 °C 30.11in /  1019.5hPa South 6.0mph /  9.7km/h 10.0mph /  16.1km/h 73% 0.04in /  1.02mm
15:29 45.3 °F /  7.4 °C 37.8 °F /  3.2 °C 30.11in /  1019.5hPa SSW 5.0mph /  8km/h 9.0mph /  14.5km/h 75% 0.03in /  0.76mm
15:34 45.1 °F /  7.3 °C 38.0 °F /  3.3 °C 30.11in /  1019.5hPa SSW 5.0mph /  8km/h 9.0mph /  14.5km/h 76% 0.04in /  1.02mm
15:39 45.0 °F /  7.2 °C 38.2 °F /  3.4 °C 30.11in /  1019.5hPa SSW 6.0mph /  9.7km/h 8.0mph /  12.9km/h 77% 0.04in /  1.02mm
15:44 44.9 °F /  7.2 °C 38.1 °F /  3.4 °C 30.10in /  1019.2hPa South 5.0mph /  8km/h 9.0mph /  14.5km/h 77% 0.04in /  1.02mm
15:49 44.8 °F /  7.1 °C 38.4 °F /  3.6 °C 30.10in /  1019.2hPa SSW 2.0mph /  3.2km/h 12.0mph /  19.3km/h 78% 0.04in /  1.02mm
15:54 44.2 °F /  6.8 °C 38.4 °F /  3.6 °C 30.10in /  1019.2hPa South 4.0mph /  6.4km/h 10.0mph /  16.1km/h 80% 0.05in /  1.27mm
15:59 43.8 °F /  6.6 °C 38.7 °F /  3.7 °C 30.10in /  1019.2hPa SSW 7.0mph /  11.3km/h 8.0mph /  12.9km/h 82% 0.06in /  1.52mm
16:04 43.5 °F /  6.4 °C 38.7 °F /  3.7 °C 30.11in /  1019.5hPa South 4.0mph /  6.4km/h 8.0mph /  12.9km/h 83% 0.07in /  1.78mm
16:09 43.3 °F /  6.3 °C 39.1 °F /  3.9 °C 30.10in /  1019.2hPa South 3.0mph /  4.8km/h 11.0mph /  17.7km/h 85% 0.07in /  1.78mm
16:14 43.1 °F /  6.2 °C 39.2 °F /  4 °C 30.11in /  1019.5hPa South 2.0mph /  3.2km/h 11.0mph /  17.7km/h 86% 0.08in /  2.03mm
16:24 42.8 °F /  6 °C 39.2 °F /  4 °C 30.10in /  1019.2hPa South 5.0mph /  8km/h 11.0mph /  17.7km/h 87% 0.08in /  2.03mm
16:29 42.7 °F /  5.9 °C 39.1 °F /  3.9 °C 30.09in /  1018.8hPa SSE 3.0mph /  4.8km/h 9.0mph /  14.5km/h 87% 0.09in /  2.29mm
16:34 42.7 °F /  5.9 °C 39.4 °F /  4.1 °C 30.09in /  1018.8hPa SSE 5.0mph /  8km/h 7.0mph /  11.3km/h 88% 0.08in /  2.03mm
16:39 42.6 °F /  5.9 °C 39.3 °F /  4.1 °C 30.09in /  1018.8hPa SSE 7.0mph /  11.3km/h 8.0mph /  12.9km/h 88% 0.08in /  2.03mm
16:44 42.7 °F /  5.9 °C 39.7 °F /  4.3 °C 30.09in /  1018.8hPa South 4.0mph /  6.4km/h 10.0mph /  16.1km/h 89% 0.07in /  1.78mm
16:54 42.7 °F /  5.9 °C 39.7 °F /  4.3 °C 30.09in /  1018.8hPa South 5.0mph /  8km/h 11.0mph /  17.7km/h 89% 0.07in /  1.78mm
16:59 42.8 °F /  6 °C 39.8 °F /  4.3 °C 30.09in /  1018.8hPa South 8.0mph /  12.9km/h 11.0mph /  17.7km/h 89% 0.06in /  1.52mm
17:04 42.9 °F /  6.1 °C 39.9 °F /  4.4 °C 30.09in /  1018.8hPa South 4.0mph /  6.4km/h 9.0mph /  14.5km/h 89% 0.04in /  1.02mm
17:09 42.8 °F /  6 °C 39.8 °F /  4.3 °C 30.09in /  1018.8hPa South 4.0mph /  6.4km/h 7.0mph /  11.3km/h 89% 0.04in /  1.02mm
17:14 42.9 °F /  6.1 °C 39.9 °F /  4.4 °C 30.09in /  1018.8hPa South 4.0mph /  6.4km/h 9.0mph /  14.5km/h 89% 0.04in /  1.02mm
17:19 42.9 °F /  6.1 °C 39.9 °F /  4.4 °C 30.08in /  1018.5hPa South 5.0mph /  8km/h 9.0mph /  14.5km/h 89% 0.03in /  0.76mm
17:24 43.0 °F /  6.1 °C 40.0 °F /  4.4 °C 30.08in /  1018.5hPa South 4.0mph /  6.4km/h 8.0mph /  12.9km/h 89% 0.03in /  0.76mm
17:29 43.1 °F /  6.2 °C 40.1 °F /  4.5 °C 30.08in /  1018.5hPa South 4.0mph /  6.4km/h 8.0mph /  12.9km/h 89% 0.02in /  0.51mm
17:34 43.2 °F /  6.2 °C 40.2 °F /  4.6 °C 30.08in /  1018.5hPa South 5.0mph /  8km/h 9.0mph /  14.5km/h 89% 0.02in /  0.51mm
17:39 43.4 °F /  6.3 °C 40.1 °F /  4.5 °C 30.08in /  1018.5hPa South 5.0mph /  8km/h 11.0mph /  17.7km/h 88% 0.02in /  0.51mm
17:49 43.8 °F /  6.6 °C 40.2 °F /  4.6 °C 30.08in /  1018.5hPa SSW 6.0mph /  9.7km/h 11.0mph /  17.7km/h 87% 0.02in /  0.51mm
17:54 44.0 °F /  6.7 °C 40.4 °F /  4.7 °C 30.07in /  1018.2hPa South 3.0mph /  4.8km/h 12.0mph /  19.3km/h 87% 0.02in /  0.51mm
17:59 44.3 °F /  6.8 °C 40.4 °F /  4.7 °C 30.08in /  1018.5hPa South 5.0mph /  8km/h 12.0mph /  19.3km/h 86% 0.02in /  0.51mm
18:09 44.3 °F /  6.8 °C 40.1 °F /  4.5 °C 30.08in /  1018.5hPa SSW 4.0mph /  6.4km/h 11.0mph /  17.7km/h 85% 0.02in /  0.51mm
18:14 44.0 °F /  6.7 °C 39.5 °F /  4.2 °C 30.08in /  1018.5hPa SSE 6.0mph /  9.7km/h 11.0mph /  17.7km/h 84% 0.01in /  0.25mm
18:19 44.0 °F /  6.7 °C 39.8 °F /  4.3 °C 30.07in /  1018.2hPa SSE 5.0mph /  8km/h 9.0mph /  14.5km/h 85% 0.01in /  0.25mm
18:24 43.8 °F /  6.6 °C 39.3 °F /  4.1 °C 30.08in /  1018.5hPa South 5.0mph /  8km/h 10.0mph /  16.1km/h 84% 0.01in /  0.25mm
18:29 43.7 °F /  6.5 °C 39.2 °F /  4 °C 30.08in /  1018.5hPa South 5.0mph /  8km/h 10.0mph /  16.1km/h 84% 0.01in /  0.25mm
18:34 43.7 °F /  6.5 °C 39.2 °F /  4 °C 30.08in /  1018.5hPa South 5.0mph /  8km/h 8.0mph /  12.9km/h 84% 0.01in /  0.25mm
18:44 43.8 °F /  6.6 °C 39.3 °F /  4.1 °C 30.08in /  1018.5hPa South 5.0mph /  8km/h 7.0mph /  11.3km/h 84% 0.00in /  0mm
18:49 43.9 °F /  6.6 °C 39.4 °F /  4.1 °C 30.08in /  1018.5hPa SSW 8.0mph /  12.9km/h 8.0mph /  12.9km/h 84% 0.00in /  0mm
18:59 44.0 °F /  6.7 °C 39.2 °F /  4 °C 30.08in /  1018.5hPa South 4.0mph /  6.4km/h 9.0mph /  14.5km/h 83% 0.00in /  0mm
19:09 44.0 °F /  6.7 °C 39.2 °F /  4 °C 30.08in /  1018.5hPa SSW 6.0mph /  9.7km/h 8.0mph /  12.9km/h 83% 0.00in /  0mm
19:14 44.0 °F /  6.7 °C 39.2 °F /  4 °C 30.08in /  1018.5hPa South 6.0mph /  9.7km/h 8.0mph /  12.9km/h 83% 0.01in /  0.25mm
19:19 44.1 °F /  6.7 °C 39.0 °F /  3.9 °C 30.08in /  1018.5hPa South 6.0mph /  9.7km/h 9.0mph /  14.5km/h 82% 0.01in /  0.25mm
19:24 44.0 °F /  6.7 °C 38.9 °F /  3.8 °C 30.08in /  1018.5hPa South 7.0mph /  11.3km/h 8.0mph /  12.9km/h 82% 0.01in /  0.25mm
19:29 44.1 °F /  6.7 °C 39.0 °F /  3.9 °C 30.08in /  1018.5hPa South 4.0mph /  6.4km/h 9.0mph /  14.5km/h 82% 0.01in /  0.25mm
19:39 44.4 °F /  6.9 °C 39.2 °F /  4 °C 30.08in /  1018.5hPa South 5.0mph /  8km/h 10.0mph /  16.1km/h 82% 0.01in /  0.25mm
19:44 44.4 °F /  6.9 °C 39.2 °F /  4 °C 30.08in /  1018.5hPa South 5.0mph /  8km/h 10.0mph /  16.1km/h 82% 0.01in /  0.25mm
19:49 44.5 °F /  6.9 °C 39.3 °F /  4.1 °C 30.08in /  1018.5hPa South 6.0mph /  9.7km/h 11.0mph /  17.7km/h 82% 0.01in /  0.25mm
19:54 44.5 °F /  6.9 °C 39.0 °F /  3.9 °C 30.08in /  1018.5hPa South 5.0mph /  8km/h 8.0mph /  12.9km/h 81% 0.01in /  0.25mm
19:59 44.4 °F /  6.9 °C 38.9 °F /  3.8 °C 30.08in /  1018.5hPa SSE 8.0mph /  12.9km/h 9.0mph /  14.5km/h 81% 0.01in /  0.25mm
20:04 44.4 °F /  6.9 °C 38.9 °F /  3.8 °C 30.08in /  1018.5hPa South 5.0mph /  8km/h 9.0mph /  14.5km/h 81% 0.01in /  0.25mm
20:09 44.3 °F /  6.8 °C 38.8 °F /  3.8 °C 30.08in /  1018.5hPa South 4.0mph /  6.4km/h 8.0mph /  12.9km/h 81% 0.01in /  0.25mm
20:14 44.3 °F /  6.8 °C 38.8 °F /  3.8 °C 30.08in /  1018.5hPa South 5.0mph /  8km/h 9.0mph /  14.5km/h 81% 0.00in /  0mm
20:19 44.4 °F /  6.9 °C 38.9 °F /  3.8 °C 30.07in /  1018.2hPa SSW 3.0mph /  4.8km/h 11.0mph /  17.7km/h 81% 0.00in /  0mm
20:24 44.5 °F /  6.9 °C 39.0 °F /  3.9 °C 30.08in /  1018.5hPa South 5.0mph /  8km/h 11.0mph /  17.7km/h 81% 0.00in /  0mm
20:29 44.7 °F /  7.1 °C 38.9 °F /  3.8 °C 30.08in /  1018.5hPa South 10.0mph /  16.1km/h 12.0mph /  19.3km/h 80% 0.00in /  0mm
20:34 44.8 °F /  7.1 °C 39.0 °F /  3.9 °C 30.07in /  1018.2hPa South 6.0mph /  9.7km/h 12.0mph /  19.3km/h 80% 0.00in /  0mm
20:39 44.8 °F /  7.1 °C 39.0 °F /  3.9 °C 30.08in /  1018.5hPa South 6.0mph /  9.7km/h 10.0mph /  16.1km/h 80% 0.00in /  0mm
20:44 44.9 °F /  7.2 °C 38.8 °F /  3.8 °C 30.08in /  1018.5hPa South 6.0mph /  9.7km/h 13.0mph /  20.9km/h 79% 0.00in /  0mm
20:49 44.9 °F /  7.2 °C 38.8 °F /  3.8 °C 30.08in /  1018.5hPa South 6.0mph /  9.7km/h 13.0mph /  20.9km/h 79% 0.00in /  0mm
20:54 45.0 °F /  7.2 °C 38.6 °F /  3.7 °C 30.08in /  1018.5hPa South 6.0mph /  9.7km/h 12.0mph /  19.3km/h 78% 0.00in /  0mm
20:55 45.0 °F /  7.2 °C 38.6 °F /  3.7 °C 30.08in /  1018.5hPa South 3.0mph /  4.8km/h 12.0mph /  19.3km/h 78% 0.00in /  0mm
21:09 44.8 °F /  7.1 °C 38.4 °F /  3.6 °C 30.08in /  1018.5hPa South 5.0mph /  8km/h 11.0mph /  17.7km/h 78% 0.00in /  0mm
21:14 44.7 °F /  7.1 °C 38.3 °F /  3.5 °C 30.09in /  1018.8hPa South 3.0mph /  4.8km/h 7.0mph /  11.3km/h 78% 0.00in /  0mm
21:15 44.7 °F /  7.1 °C 38.3 °F /  3.5 °C 30.09in /  1018.8hPa South 5.0mph /  8km/h 11.0mph /  17.7km/h 78% 0.00in /  0mm
21:24 45.2 °F /  7.3 °C 38.7 °F /  3.7 °C 30.08in /  1018.5hPa SSW 4.0mph /  6.4km/h 12.0mph /  19.3km/h 78% 0.00in /  0mm
21:29 45.4 °F /  7.4 °C 38.6 °F /  3.7 °C 30.08in /  1018.5hPa SSE 6.0mph /  9.7km/h 11.0mph /  17.7km/h 77% 0.00in /  0mm
21:34 45.4 °F /  7.4 °C 38.6 °F /  3.7 °C 30.08in /  1018.5hPa SSW 7.0mph /  11.3km/h 11.0mph /  17.7km/h 77% 0.00in /  0mm
21:39 45.4 °F /  7.4 °C 38.3 °F /  3.5 °C 30.08in /  1018.5hPa SSE 8.0mph /  12.9km/h 14.0mph /  22.5km/h 76% 0.00in /  0mm
21:44 45.4 °F /  7.4 °C 38.3 °F /  3.5 °C 30.08in /  1018.5hPa South 3.0mph /  4.8km/h 9.0mph /  14.5km/h 76% 0.00in /  0mm
21:49 45.3 °F /  7.4 °C 38.2 °F /  3.4 °C 30.08in /  1018.5hPa South 6.0mph /  9.7km/h 10.0mph /  16.1km/h 76% 0.00in /  0mm
21:54 45.2 °F /  7.3 °C 38.1 °F /  3.4 °C 30.08in /  1018.5hPa South 5.0mph /  8km/h 14.0mph /  22.5km/h 76% 0.00in /  0mm
21:59 45.4 °F /  7.4 °C 38.3 °F /  3.5 °C 30.08in /  1018.5hPa South 5.0mph /  8km/h 14.0mph /  22.5km/h 76% 0.00in /  0mm
22:09 45.6 °F /  7.6 °C 38.5 °F /  3.6 °C 30.08in /  1018.5hPa South 5.0mph /  8km/h 13.0mph /  20.9km/h 76% 0.00in /  0mm
22:14 45.6 °F /  7.6 °C 38.5 °F /  3.6 °C 30.08in /  1018.5hPa South 5.0mph /  8km/h 12.0mph /  19.3km/h 76% 0.00in /  0mm
22:19 45.6 °F /  7.6 °C 38.5 °F /  3.6 °C 30.08in /  1018.5hPa South 5.0mph /  8km/h 8.0mph /  12.9km/h 76% 0.00in /  0mm
22:24 45.6 °F /  7.6 °C 38.5 °F /  3.6 °C 30.08in /  1018.5hPa South 7.0mph /  11.3km/h 12.0mph /  19.3km/h 76% 0.00in /  0mm
22:29 45.6 °F /  7.6 °C 38.5 °F /  3.6 °C 30.08in /  1018.5hPa South 6.0mph /  9.7km/h 12.0mph /  19.3km/h 76% 0.00in /  0mm
22:34 45.7 °F /  7.6 °C 38.6 °F /  3.7 °C 30.08in /  1018.5hPa SSW 7.0mph /  11.3km/h 13.0mph /  20.9km/h 76% 0.00in /  0mm
22:39 45.8 °F /  7.7 °C 38.3 °F /  3.5 °C 30.08in /  1018.5hPa South 6.0mph /  9.7km/h 11.0mph /  17.7km/h 75% 0.00in /  0mm
22:44 45.8 °F /  7.7 °C 38.3 °F /  3.5 °C 30.08in /  1018.5hPa South 6.0mph /  9.7km/h 12.0mph /  19.3km/h 75% 0.00in /  0mm
22:49 45.8 °F /  7.7 °C 38.3 °F /  3.5 °C 30.08in /  1018.5hPa South 5.0mph /  8km/h 11.0mph /  17.7km/h 75% 0.00in /  0mm
22:54 45.8 °F /  7.7 °C 38.3 °F /  3.5 °C 30.08in /  1018.5hPa South 4.0mph /  6.4km/h 12.0mph /  19.3km/h 75% 0.00in /  0mm
22:59 45.8 °F /  7.7 °C 38.0 °F /  3.3 °C 30.08in /  1018.5hPa South 5.0mph /  8km/h 12.0mph /  19.3km/h 74% 0.00in /  0mm
23:04 46.1 °F /  7.8 °C 38.3 °F /  3.5 °C 30.07in /  1018.2hPa South 5.0mph /  8km/h 11.0mph /  17.7km/h 74% 0.00in /  0mm
23:09 46.0 °F /  7.8 °C 38.2 °F /  3.4 °C 30.07in /  1018.2hPa South 5.0mph /  8km/h 11.0mph /  17.7km/h 74% 0.00in /  0mm
23:14 46.3 °F /  7.9 °C 38.5 °F /  3.6 °C 30.07in /  1018.2hPa South 5.0mph /  8km/h 10.0mph /  16.1km/h 74% 0.00in /  0mm
23:24 46.5 °F /  8.1 °C 38.3 °F /  3.5 °C 30.07in /  1018.2hPa SSW 7.0mph /  11.3km/h 13.0mph /  20.9km/h 73% 0.00in /  0mm
23:29 46.6 °F /  8.1 °C 38.4 °F /  3.6 °C 30.07in /  1018.2hPa South 6.0mph /  9.7km/h 13.0mph /  20.9km/h 73% 0.00in /  0mm
23:34 46.9 °F /  8.3 °C 38.7 °F /  3.7 °C 30.07in /  1018.2hPa South 9.0mph /  14.5km/h 14.0mph /  22.5km/h 73% 0.00in /  0mm
23:39 47.0 °F /  8.3 °C 38.8 °F /  3.8 °C 30.07in /  1018.2hPa South 6.0mph /  9.7km/h 14.0mph /  22.5km/h 73% 0.00in /  0mm
23:44 47.3 °F /  8.5 °C 39.1 °F /  3.9 °C 30.07in /  1018.2hPa SSW 7.0mph /  11.3km/h 13.0mph /  20.9km/h 73% 0.00in /  0mm
23:49 47.8 °F /  8.8 °C 39.2 °F /  4 °C 30.06in /  1017.8hPa South 4.0mph /  6.4km/h 14.0mph /  22.5km/h 72% 0.00in /  0mm
23:54 48.3 °F /  9.1 °C 39.3 °F /  4.1 °C 30.06in /  1017.8hPa South 7.0mph /  11.3km/h 14.0mph /  22.5km/h 71% 0.00in /  0mm
23:59 48.6 °F /  9.2 °C 39.3 °F /  4.1 °C 30.06in /  1017.8hPa South 8.0mph /  12.9km/h 15.0mph /  24.1km/h 70% 0.00in /  0mm
Buffalo, New York, USA
Compliments of Weather Underground - 1.75 mb